sensor_id;sensor_type;location;lat;lon;timestamp;P1;durP1;ratioP1;P2;durP2;ratioP2
63499;SDS011;49654;51.142;14.924;2022-09-12T00:01:47;12.25;;;10.60;;
63499;SDS011;49654;51.142;14.924;2022-09-12T00:04:14;12.95;;;10.80;;
63499;SDS011;49654;51.142;14.924;2022-09-12T00:06:41;14.35;;;11.45;;
63499;SDS011;49654;51.142;14.924;2022-09-12T00:09:08;14.48;;;11.82;;
63499;SDS011;49654;51.142;14.924;2022-09-12T00:11:38;14.88;;;12.45;;
63499;SDS011;49654;51.142;14.924;2022-09-12T00:14:08;18.80;;;13.25;;
63499;SDS011;49654;51.142;14.924;2022-09-12T00:16:38;16.13;;;12.85;;
63499;SDS011;49654;51.142;14.924;2022-09-12T00:19:05;17.58;;;14.07;;
63499;SDS011;49654;51.142;14.924;2022-09-12T00:21:33;14.23;;;12.73;;
63499;SDS011;49654;51.142;14.924;2022-09-12T00:24:02;18.85;;;13.27;;
63499;SDS011;49654;51.142;14.924;2022-09-12T00:26:30;17.15;;;13.98;;
63499;SDS011;49654;51.142;14.924;2022-09-12T00:28:57;17.80;;;14.57;;
63499;SDS011;49654;51.142;14.924;2022-09-12T00:31:25;18.50;;;15.10;;
63499;SDS011;49654;51.142;14.924;2022-09-12T00:33:54;17.75;;;14.10;;
63499;SDS011;49654;51.142;14.924;2022-09-12T00:36:23;18.75;;;15.52;;
63499;SDS011;49654;51.142;14.924;2022-09-12T00:38:51;20.60;;;16.02;;
63499;SDS011;49654;51.142;14.924;2022-09-12T00:41:20;17.55;;;15.18;;
63499;SDS011;49654;51.142;14.924;2022-09-12T00:43:49;21.60;;;16.02;;
63499;SDS011;49654;51.142;14.924;2022-09-12T00:46:21;18.33;;;16.00;;
63499;SDS011;49654;51.142;14.924;2022-09-12T00:48:56;19.55;;;16.02;;
63499;SDS011;49654;51.142;14.924;2022-09-12T00:51:26;21.75;;;16.98;;
63499;SDS011;49654;51.142;14.924;2022-09-12T00:53:56;20.20;;;16.58;;
63499;SDS011;49654;51.142;14.924;2022-09-12T00:56:24;22.88;;;16.95;;
63499;SDS011;49654;51.142;14.924;2022-09-12T00:58:53;20.13;;;15.90;;
63499;SDS011;49654;51.142;14.924;2022-09-12T01:01:23;21.80;;;16.00;;
63499;SDS011;49654;51.142;14.924;2022-09-12T01:03:50;21.88;;;17.20;;
63499;SDS011;49654;51.142;14.924;2022-09-12T01:06:19;19.70;;;16.83;;
63499;SDS011;49654;51.142;14.924;2022-09-12T01:08:50;21.40;;;16.95;;
63499;SDS011;49654;51.142;14.924;2022-09-12T01:11:19;18.13;;;15.73;;
63499;SDS011;49654;51.142;14.924;2022-09-12T01:13:47;19.85;;;16.60;;
63499;SDS011;49654;51.142;14.924;2022-09-12T01:16:16;24.08;;;16.75;;
63499;SDS011;49654;51.142;14.924;2022-09-12T01:18:45;19.63;;;15.57;;
63499;SDS011;49654;51.142;14.924;2022-09-12T01:21:24;18.65;;;15.48;;
63499;SDS011;49654;51.142;14.924;2022-09-12T01:24:19;18.80;;;15.02;;
63499;SDS011;49654;51.142;14.924;2022-09-12T01:27:07;19.55;;;16.38;;
63499;SDS011;49654;51.142;14.924;2022-09-12T01:29:51;24.00;;;16.90;;
63499;SDS011;49654;51.142;14.924;2022-09-12T01:32:32;18.23;;;15.20;;
63499;SDS011;49654;51.142;14.924;2022-09-12T01:35:11;16.98;;;14.35;;
63499;SDS011;49654;51.142;14.924;2022-09-12T01:37:51;18.25;;;13.73;;
63499;SDS011;49654;51.142;14.924;2022-09-12T01:40:27;17.13;;;14.52;;
63499;SDS011;49654;51.142;14.924;2022-09-12T01:43:01;16.90;;;15.10;;
63499;SDS011;49654;51.142;14.924;2022-09-12T01:45:36;17.00;;;14.02;;
63499;SDS011;49654;51.142;14.924;2022-09-12T01:48:09;14.20;;;12.70;;
63499;SDS011;49654;51.142;14.924;2022-09-12T01:50:44;14.32;;;12.68;;
63499;SDS011;49654;51.142;14.924;2022-09-12T01:53:17;14.57;;;13.00;;
63499;SDS011;49654;51.142;14.924;2022-09-12T01:55:50;15.05;;;12.93;;
63499;SDS011;49654;51.142;14.924;2022-09-12T01:58:22;16.08;;;14.05;;
63499;SDS011;49654;51.142;14.924;2022-09-12T02:00:54;16.85;;;13.20;;
63499;SDS011;49654;51.142;14.924;2022-09-12T02:03:29;16.92;;;14.52;;
63499;SDS011;49654;51.142;14.924;2022-09-12T02:06:00;16.25;;;14.55;;
63499;SDS011;49654;51.142;14.924;2022-09-12T02:08:33;16.08;;;13.93;;
63499;SDS011;49654;51.142;14.924;2022-09-12T02:11:05;14.65;;;13.15;;
63499;SDS011;49654;51.142;14.924;2022-09-12T02:13:34;16.75;;;14.57;;
63499;SDS011;49654;51.142;14.924;2022-09-12T02:16:05;15.48;;;13.82;;
63499;SDS011;49654;51.142;14.924;2022-09-12T02:18:37;15.40;;;13.80;;
63499;SDS011;49654;51.142;14.924;2022-09-12T02:21:07;15.85;;;13.27;;
63499;SDS011;49654;51.142;14.924;2022-09-12T02:23:35;15.35;;;12.95;;
63499;SDS011;49654;51.142;14.924;2022-09-12T02:26:11;16.33;;;13.30;;
63499;SDS011;49654;51.142;14.924;2022-09-12T02:28:41;16.60;;;13.82;;
63499;SDS011;49654;51.142;14.924;2022-09-12T02:31:11;14.93;;;13.32;;
63499;SDS011;49654;51.142;14.924;2022-09-12T02:33:45;15.57;;;13.95;;
63499;SDS011;49654;51.142;14.924;2022-09-12T02:36:19;14.95;;;13.05;;
63499;SDS011;49654;51.142;14.924;2022-09-12T02:38:54;14.52;;;13.00;;
63499;SDS011;49654;51.142;14.924;2022-09-12T02:41:21;13.80;;;12.10;;
63499;SDS011;49654;51.142;14.924;2022-09-12T02:43:49;13.15;;;11.70;;
63499;SDS011;49654;51.142;14.924;2022-09-12T02:46:20;16.77;;;13.82;;
63499;SDS011;49654;51.142;14.924;2022-09-12T02:48:50;15.60;;;13.32;;
63499;SDS011;49654;51.142;14.924;2022-09-12T02:51:17;15.15;;;13.50;;
63499;SDS011;49654;51.142;14.924;2022-09-12T02:53:45;17.00;;;14.15;;
63499;SDS011;49654;51.142;14.924;2022-09-12T02:56:13;18.17;;;15.50;;
63499;SDS011;49654;51.142;14.924;2022-09-12T02:58:44;17.65;;;14.43;;
63499;SDS011;49654;51.142;14.924;2022-09-12T03:01:13;17.48;;;15.40;;
63499;SDS011;49654;51.142;14.924;2022-09-12T03:03:56;17.15;;;15.45;;
63499;SDS011;49654;51.142;14.924;2022-09-12T03:06:47;16.67;;;14.98;;
63499;SDS011;49654;51.142;14.924;2022-09-12T03:09:21;16.25;;;14.60;;
63499;SDS011;49654;51.142;14.924;2022-09-12T03:12:04;15.15;;;13.60;;
63499;SDS011;49654;51.142;14.924;2022-09-12T03:14:48;16.58;;;14.80;;
63499;SDS011;49654;51.142;14.924;2022-09-12T03:17:28;16.65;;;13.77;;
63499;SDS011;49654;51.142;14.924;2022-09-12T03:20:04;17.90;;;16.00;;
63499;SDS011;49654;51.142;14.924;2022-09-12T03:22:37;16.83;;;14.80;;
63499;SDS011;49654;51.142;14.924;2022-09-12T03:25:14;17.55;;;15.32;;
63499;SDS011;49654;51.142;14.924;2022-09-12T03:27:46;18.83;;;16.92;;
63499;SDS011;49654;51.142;14.924;2022-09-12T03:30:19;18.73;;;15.35;;
63499;SDS011;49654;51.142;14.924;2022-09-12T03:32:47;20.42;;;17.50;;
63499;SDS011;49654;51.142;14.924;2022-09-12T03:35:17;20.25;;;15.80;;
63499;SDS011;49654;51.142;14.924;2022-09-12T03:37:45;18.67;;;15.13;;
63499;SDS011;49654;51.142;14.924;2022-09-12T03:40:13;19.00;;;15.43;;
63499;SDS011;49654;51.142;14.924;2022-09-12T03:42:40;20.27;;;14.93;;
63499;SDS011;49654;51.142;14.924;2022-09-12T03:45:08;19.90;;;16.38;;
63499;SDS011;49654;51.142;14.924;2022-09-12T03:47:36;18.67;;;16.55;;
63499;SDS011;49654;51.142;14.924;2022-09-12T03:50:03;20.65;;;16.45;;
63499;SDS011;49654;51.142;14.924;2022-09-12T03:52:33;21.08;;;16.52;;
63499;SDS011;49654;51.142;14.924;2022-09-12T03:55:00;21.50;;;18.30;;
63499;SDS011;49654;51.142;14.924;2022-09-12T03:57:27;20.30;;;17.17;;
63499;SDS011;49654;51.142;14.924;2022-09-12T03:59:53;20.10;;;17.13;;
63499;SDS011;49654;51.142;14.924;2022-09-12T04:02:20;23.10;;;17.83;;
63499;SDS011;49654;51.142;14.924;2022-09-12T04:04:48;22.35;;;18.27;;
63499;SDS011;49654;51.142;14.924;2022-09-12T04:07:15;25.08;;;18.50;;
63499;SDS011;49654;51.142;14.924;2022-09-12T04:09:43;21.85;;;18.52;;
63499;SDS011;49654;51.142;14.924;2022-09-12T04:12:10;22.10;;;18.10;;
63499;SDS011;49654;51.142;14.924;2022-09-12T04:14:37;26.13;;;18.92;;
63499;SDS011;49654;51.142;14.924;2022-09-12T04:17:04;23.40;;;19.10;;
63499;SDS011;49654;51.142;14.924;2022-09-12T04:19:31;22.48;;;19.58;;
63499;SDS011;49654;51.142;14.924;2022-09-12T04:21:58;25.05;;;19.20;;
63499;SDS011;49654;51.142;14.924;2022-09-12T04:24:25;23.05;;;18.13;;
63499;SDS011;49654;51.142;14.924;2022-09-12T04:26:53;21.10;;;18.42;;
63499;SDS011;49654;51.142;14.924;2022-09-12T04:29:20;21.27;;;18.15;;
63499;SDS011;49654;51.142;14.924;2022-09-12T04:31:47;21.77;;;18.00;;
63499;SDS011;49654;51.142;14.924;2022-09-12T04:34:14;26.55;;;18.20;;
63499;SDS011;49654;51.142;14.924;2022-09-12T04:36:41;21.77;;;17.00;;
63499;SDS011;49654;51.142;14.924;2022-09-12T04:39:09;22.40;;;18.00;;
63499;SDS011;49654;51.142;14.924;2022-09-12T04:41:37;26.05;;;19.73;;
63499;SDS011;49654;51.142;14.924;2022-09-12T04:44:07;21.60;;;18.13;;
63499;SDS011;49654;51.142;14.924;2022-09-12T04:46:37;23.20;;;17.80;;
63499;SDS011;49654;51.142;14.924;2022-09-12T04:49:06;22.02;;;17.77;;
63499;SDS011;49654;51.142;14.924;2022-09-12T04:51:34;21.58;;;17.90;;
63499;SDS011;49654;51.142;14.924;2022-09-12T04:54:03;24.15;;;18.48;;
63499;SDS011;49654;51.142;14.924;2022-09-12T04:56:32;24.98;;;18.58;;
63499;SDS011;49654;51.142;14.924;2022-09-12T04:59:02;24.80;;;19.02;;
63499;SDS011;49654;51.142;14.924;2022-09-12T05:01:31;24.42;;;18.75;;
63499;SDS011;49654;51.142;14.924;2022-09-12T05:03:58;23.23;;;18.85;;
63499;SDS011;49654;51.142;14.924;2022-09-12T05:06:26;25.20;;;19.20;;
63499;SDS011;49654;51.142;14.924;2022-09-12T05:08:55;24.90;;;20.13;;
63499;SDS011;49654;51.142;14.924;2022-09-12T05:11:23;26.10;;;20.02;;
63499;SDS011;49654;51.142;14.924;2022-09-12T05:13:53;23.30;;;19.23;;
63499;SDS011;49654;51.142;14.924;2022-09-12T05:16:20;23.20;;;19.23;;
63499;SDS011;49654;51.142;14.924;2022-09-12T05:18:49;27.98;;;19.60;;
63499;SDS011;49654;51.142;14.924;2022-09-12T05:21:17;24.27;;;18.63;;
63499;SDS011;49654;51.142;14.924;2022-09-12T05:23:49;20.27;;;17.33;;
63499;SDS011;49654;51.142;14.924;2022-09-12T05:26:17;24.85;;;18.27;;
63499;SDS011;49654;51.142;14.924;2022-09-12T05:28:45;23.10;;;18.42;;
63499;SDS011;49654;51.142;14.924;2022-09-12T05:31:13;25.75;;;17.30;;
63499;SDS011;49654;51.142;14.924;2022-09-12T05:33:42;25.42;;;18.98;;
63499;SDS011;49654;51.142;14.924;2022-09-12T05:36:12;21.80;;;17.33;;
63499;SDS011;49654;51.142;14.924;2022-09-12T05:38:41;23.42;;;17.65;;
63499;SDS011;49654;51.142;14.924;2022-09-12T05:41:09;22.15;;;17.00;;
63499;SDS011;49654;51.142;14.924;2022-09-12T05:43:38;20.42;;;16.05;;
63499;SDS011;49654;51.142;14.924;2022-09-12T05:46:08;18.30;;;16.10;;
63499;SDS011;49654;51.142;14.924;2022-09-12T05:48:37;20.55;;;16.52;;
63499;SDS011;49654;51.142;14.924;2022-09-12T05:51:06;21.25;;;16.10;;
63499;SDS011;49654;51.142;14.924;2022-09-12T05:53:36;18.17;;;15.63;;
63499;SDS011;49654;51.142;14.924;2022-09-12T05:56:04;21.30;;;15.48;;
63499;SDS011;49654;51.142;14.924;2022-09-12T05:58:33;18.25;;;15.35;;
63499;SDS011;49654;51.142;14.924;2022-09-12T06:01:01;18.27;;;15.30;;
63499;SDS011;49654;51.142;14.924;2022-09-12T06:03:29;17.63;;;14.90;;
63499;SDS011;49654;51.142;14.924;2022-09-12T06:05:59;16.92;;;14.00;;
63499;SDS011;49654;51.142;14.924;2022-09-12T06:08:27;18.77;;;14.98;;
63499;SDS011;49654;51.142;14.924;2022-09-12T06:10:58;19.30;;;15.05;;
63499;SDS011;49654;51.142;14.924;2022-09-12T06:13:25;20.92;;;15.27;;
63499;SDS011;49654;51.142;14.924;2022-09-12T06:15:52;18.83;;;15.10;;
63499;SDS011;49654;51.142;14.924;2022-09-12T06:18:19;19.08;;;14.95;;
63499;SDS011;49654;51.142;14.924;2022-09-12T06:20:46;21.33;;;16.35;;
63499;SDS011;49654;51.142;14.924;2022-09-12T06:23:13;20.33;;;16.48;;
63499;SDS011;49654;51.142;14.924;2022-09-12T06:25:44;20.33;;;16.40;;
63499;SDS011;49654;51.142;14.924;2022-09-12T06:28:13;18.33;;;14.40;;
63499;SDS011;49654;51.142;14.924;2022-09-12T06:30:40;20.27;;;16.42;;
63499;SDS011;49654;51.142;14.924;2022-09-12T06:33:07;18.42;;;15.30;;
63499;SDS011;49654;51.142;14.924;2022-09-12T06:35:35;20.52;;;15.85;;
63499;SDS011;49654;51.142;14.924;2022-09-12T06:38:02;20.05;;;15.77;;
63499;SDS011;49654;51.142;14.924;2022-09-12T06:40:30;20.13;;;16.58;;
63499;SDS011;49654;51.142;14.924;2022-09-12T06:42:57;22.48;;;16.08;;
63499;SDS011;49654;51.142;14.924;2022-09-12T06:45:25;18.95;;;15.75;;
63499;SDS011;49654;51.142;14.924;2022-09-12T06:47:53;19.90;;;15.48;;
63499;SDS011;49654;51.142;14.924;2022-09-12T06:50:20;20.15;;;16.15;;
63499;SDS011;49654;51.142;14.924;2022-09-12T06:52:47;20.60;;;16.02;;
63499;SDS011;49654;51.142;14.924;2022-09-12T06:55:15;18.90;;;16.08;;
63499;SDS011;49654;51.142;14.924;2022-09-12T06:57:42;19.95;;;14.75;;
63499;SDS011;49654;51.142;14.924;2022-09-12T07:00:09;20.23;;;16.65;;
63499;SDS011;49654;51.142;14.924;2022-09-12T07:02:38;18.45;;;15.25;;
63499;SDS011;49654;51.142;14.924;2022-09-12T07:05:05;19.25;;;15.73;;
63499;SDS011;49654;51.142;14.924;2022-09-12T07:07:33;19.85;;;16.63;;
63499;SDS011;49654;51.142;14.924;2022-09-12T07:10:00;18.23;;;15.48;;
63499;SDS011;49654;51.142;14.924;2022-09-12T07:12:27;18.38;;;15.65;;
63499;SDS011;49654;51.142;14.924;2022-09-12T07:14:54;17.33;;;15.40;;
63499;SDS011;49654;51.142;14.924;2022-09-12T07:17:21;17.70;;;15.18;;
63499;SDS011;49654;51.142;14.924;2022-09-12T07:19:49;16.75;;;14.73;;
63499;SDS011;49654;51.142;14.924;2022-09-12T07:22:16;20.25;;;15.10;;
63499;SDS011;49654;51.142;14.924;2022-09-12T07:24:43;16.75;;;14.73;;
63499;SDS011;49654;51.142;14.924;2022-09-12T07:27:11;15.15;;;13.57;;
63499;SDS011;49654;51.142;14.924;2022-09-12T07:29:38;16.48;;;14.73;;
63499;SDS011;49654;51.142;14.924;2022-09-12T07:32:05;15.23;;;13.63;;
63499;SDS011;49654;51.142;14.924;2022-09-12T07:34:32;16.60;;;14.40;;
63499;SDS011;49654;51.142;14.924;2022-09-12T07:37:00;16.83;;;15.13;;
63499;SDS011;49654;51.142;14.924;2022-09-12T07:39:27;18.17;;;16.08;;
63499;SDS011;49654;51.142;14.924;2022-09-12T07:41:54;17.58;;;15.13;;
63499;SDS011;49654;51.142;14.924;2022-09-12T07:44:22;18.17;;;16.15;;
63499;SDS011;49654;51.142;14.924;2022-09-12T07:46:49;16.73;;;14.25;;
63499;SDS011;49654;51.142;14.924;2022-09-12T07:49:16;19.33;;;16.35;;
63499;SDS011;49654;51.142;14.924;2022-09-12T07:51:43;19.38;;;16.42;;
63499;SDS011;49654;51.142;14.924;2022-09-12T07:54:12;18.88;;;15.20;;
63499;SDS011;49654;51.142;14.924;2022-09-12T07:56:39;17.77;;;15.98;;
63499;SDS011;49654;51.142;14.924;2022-09-12T07:59:06;18.52;;;15.75;;
63499;SDS011;49654;51.142;14.924;2022-09-12T08:01:33;17.40;;;15.48;;
63499;SDS011;49654;51.142;14.924;2022-09-12T08:04:00;17.75;;;15.00;;
63499;SDS011;49654;51.142;14.924;2022-09-12T08:06:29;16.60;;;13.90;;
63499;SDS011;49654;51.142;14.924;2022-09-12T08:08:58;17.58;;;14.43;;
63499;SDS011;49654;51.142;14.924;2022-09-12T08:11:28;16.02;;;14.32;;
63499;SDS011;49654;51.142;14.924;2022-09-12T08:13:55;16.30;;;14.60;;
63499;SDS011;49654;51.142;14.924;2022-09-12T08:16:24;18.88;;;14.70;;
63499;SDS011;49654;51.142;14.924;2022-09-12T08:18:51;16.45;;;13.10;;
63499;SDS011;49654;51.142;14.924;2022-09-12T08:21:20;13.93;;;11.68;;
63499;SDS011;49654;51.142;14.924;2022-09-12T08:23:50;16.67;;;12.25;;
63499;SDS011;49654;51.142;14.924;2022-09-12T08:26:18;15.25;;;13.32;;
63499;SDS011;49654;51.142;14.924;2022-09-12T08:28:46;16.90;;;14.63;;
63499;SDS011;49654;51.142;14.924;2022-09-12T08:31:14;16.40;;;14.70;;
63499;SDS011;49654;51.142;14.924;2022-09-12T08:33:42;18.27;;;15.63;;
63499;SDS011;49654;51.142;14.924;2022-09-12T08:36:11;17.73;;;15.82;;
63499;SDS011;49654;51.142;14.924;2022-09-12T08:38:40;16.55;;;14.77;;
63499;SDS011;49654;51.142;14.924;2022-09-12T08:41:09;17.25;;;15.43;;
63499;SDS011;49654;51.142;14.924;2022-09-12T08:43:54;17.40;;;15.38;;
63499;SDS011;49654;51.142;14.924;2022-09-12T08:46:32;19.42;;;15.45;;
63499;SDS011;49654;51.142;14.924;2022-09-12T08:49:03;19.00;;;14.18;;
63499;SDS011;49654;51.142;14.924;2022-09-12T08:51:34;16.17;;;14.48;;
63499;SDS011;49654;51.142;14.924;2022-09-12T08:54:02;18.27;;;15.25;;
63499;SDS011;49654;51.142;14.924;2022-09-12T08:56:44;16.65;;;14.35;;
63499;SDS011;49654;51.142;14.924;2022-09-12T08:59:15;16.60;;;14.77;;
63499;SDS011;49654;51.142;14.924;2022-09-12T09:01:42;16.27;;;14.48;;
63499;SDS011;49654;51.142;14.924;2022-09-12T09:07:06;15.18;;;13.57;;
63499;SDS011;49654;51.142;14.924;2022-09-12T09:09:52;16.73;;;14.55;;
63499;SDS011;49654;51.142;14.924;2022-09-12T09:12:31;15.68;;;14.07;;
63499;SDS011;49654;51.142;14.924;2022-09-12T09:15:14;16.55;;;14.85;;
63499;SDS011;49654;51.142;14.924;2022-09-12T09:17:53;14.48;;;12.98;;
63499;SDS011;49654;51.142;14.924;2022-09-12T09:20:25;12.88;;;11.40;;
63499;SDS011;49654;51.142;14.924;2022-09-12T09:22:57;9.93;;;8.95;;
63499;SDS011;49654;51.142;14.924;2022-09-12T09:25:35;9.30;;;8.05;;
63499;SDS011;49654;51.142;14.924;2022-09-12T09:28:10;8.50;;;7.70;;
63499;SDS011;49654;51.142;14.924;2022-09-12T09:30:43;8.60;;;7.70;;
63499;SDS011;49654;51.142;14.924;2022-09-12T09:33:14;9.48;;;8.30;;
63499;SDS011;49654;51.142;14.924;2022-09-12T09:35:47;7.95;;;6.78;;
63499;SDS011;49654;51.142;14.924;2022-09-12T09:38:22;7.28;;;6.57;;
63499;SDS011;49654;51.142;14.924;2022-09-12T09:40:59;5.95;;;5.35;;
63499;SDS011;49654;51.142;14.924;2022-09-12T09:43:36;9.60;;;4.20;;
63499;SDS011;49654;51.142;14.924;2022-09-12T09:46:05;4.70;;;3.35;;
63499;SDS011;49654;51.142;14.924;2022-09-12T09:48:33;4.80;;;3.80;;
63499;SDS011;49654;51.142;14.924;2022-09-12T09:51:03;5.30;;;3.55;;
63499;SDS011;49654;51.142;14.924;2022-09-12T09:53:35;4.18;;;2.50;;
63499;SDS011;49654;51.142;14.924;2022-09-12T09:56:08;3.75;;;2.70;;
63499;SDS011;49654;51.142;14.924;2022-09-12T09:58:40;3.80;;;2.75;;
63499;SDS011;49654;51.142;14.924;2022-09-12T10:01:13;3.47;;;3.17;;
63499;SDS011;49654;51.142;14.924;2022-09-12T10:03:46;4.63;;;3.22;;
63499;SDS011;49654;51.142;14.924;2022-09-12T10:06:28;5.43;;;3.97;;
63499;SDS011;49654;51.142;14.924;2022-09-12T10:09:09;3.90;;;3.40;;
63499;SDS011;49654;51.142;14.924;2022-09-12T10:11:47;4.20;;;3.65;;
63499;SDS011;49654;51.142;14.924;2022-09-12T10:14:29;3.88;;;3.17;;
63499;SDS011;49654;51.142;14.924;2022-09-12T10:17:04;6.03;;;4.45;;
63499;SDS011;49654;51.142;14.924;2022-09-12T10:19:48;4.70;;;4.20;;
63499;SDS011;49654;51.142;14.924;2022-09-12T10:22:16;5.47;;;4.47;;
63499;SDS011;49654;51.142;14.924;2022-09-12T10:24:46;4.30;;;3.90;;
63499;SDS011;49654;51.142;14.924;2022-09-12T10:27:18;5.55;;;4.68;;
63499;SDS011;49654;51.142;14.924;2022-09-12T10:29:47;5.13;;;4.60;;
63499;SDS011;49654;51.142;14.924;2022-09-12T10:32:25;4.57;;;4.05;;
63499;SDS011;49654;51.142;14.924;2022-09-12T10:34:56;4.90;;;3.90;;
63499;SDS011;49654;51.142;14.924;2022-09-12T10:37:28;4.55;;;4.00;;
63499;SDS011;49654;51.142;14.924;2022-09-12T10:39:57;4.32;;;3.78;;
63499;SDS011;49654;51.142;14.924;2022-09-12T10:42:41;4.38;;;3.97;;
63499;SDS011;49654;51.142;14.924;2022-09-12T10:45:19;3.58;;;3.28;;
63499;SDS011;49654;51.142;14.924;2022-09-12T10:47:50;5.10;;;3.90;;
63499;SDS011;49654;51.142;14.924;2022-09-12T10:50:20;4.40;;;3.40;;
63499;SDS011;49654;51.142;14.924;2022-09-12T10:52:50;5.32;;;4.20;;
63499;SDS011;49654;51.142;14.924;2022-09-12T10:55:18;4.53;;;4.10;;
63499;SDS011;49654;51.142;14.924;2022-09-12T10:57:53;4.30;;;3.90;;
63499;SDS011;49654;51.142;14.924;2022-09-12T11:00:31;4.75;;;4.30;;
63499;SDS011;49654;51.142;14.924;2022-09-12T11:03:13;4.25;;;3.85;;
63499;SDS011;49654;51.142;14.924;2022-09-12T11:05:51;4.15;;;3.75;;
63499;SDS011;49654;51.142;14.924;2022-09-12T11:08:24;4.47;;;3.90;;
63499;SDS011;49654;51.142;14.924;2022-09-12T11:11:03;4.57;;;3.80;;
63499;SDS011;49654;51.142;14.924;2022-09-12T11:13:44;5.47;;;4.00;;
63499;SDS011;49654;51.142;14.924;2022-09-12T11:16:20;4.15;;;3.75;;
63499;SDS011;49654;51.142;14.924;2022-09-12T11:19:13;6.13;;;3.65;;
63499;SDS011;49654;51.142;14.924;2022-09-12T11:24:57;5.18;;;3.55;;
63499;SDS011;49654;51.142;14.924;2022-09-12T11:27:37;5.55;;;3.70;;
63499;SDS011;49654;51.142;14.924;2022-09-12T11:30:15;4.60;;;3.30;;
63499;SDS011;49654;51.142;14.924;2022-09-12T11:32:49;3.72;;;3.33;;
63499;SDS011;49654;51.142;14.924;2022-09-12T11:35:28;4.18;;;3.53;;
63499;SDS011;49654;51.142;14.924;2022-09-12T11:37:58;4.80;;;3.50;;
63499;SDS011;49654;51.142;14.924;2022-09-12T11:41:00;3.47;;;2.85;;
63499;SDS011;49654;51.142;14.924;2022-09-12T11:43:31;3.05;;;2.58;;
63499;SDS011;49654;51.142;14.924;2022-09-12T11:46:05;3.70;;;2.22;;
63499;SDS011;49654;51.142;14.924;2022-09-12T11:48:41;3.20;;;2.90;;
63499;SDS011;49654;51.142;14.924;2022-09-12T11:51:17;4.07;;;2.97;;
63499;SDS011;49654;51.142;14.924;2022-09-12T11:53:56;5.70;;;3.42;;
63499;SDS011;49654;51.142;14.924;2022-09-12T11:56:30;4.28;;;3.25;;
63499;SDS011;49654;51.142;14.924;2022-09-12T11:58:58;4.60;;;3.00;;
63499;SDS011;49654;51.142;14.924;2022-09-12T12:01:31;6.57;;;3.40;;
63499;SDS011;49654;51.142;14.924;2022-09-12T12:04:05;3.08;;;2.78;;
63499;SDS011;49654;51.142;14.924;2022-09-12T12:06:42;5.95;;;3.10;;
63499;SDS011;49654;51.142;14.924;2022-09-12T12:09:15;2.40;;;2.20;;
63499;SDS011;49654;51.142;14.924;2022-09-12T12:11:42;3.28;;;2.35;;
63499;SDS011;49654;51.142;14.924;2022-09-12T12:14:14;3.13;;;2.42;;
63499;SDS011;49654;51.142;14.924;2022-09-12T12:16:44;1.90;;;1.75;;
63499;SDS011;49654;51.142;14.924;2022-09-12T12:19:22;1.80;;;1.70;;
63499;SDS011;49654;51.142;14.924;2022-09-12T12:22:03;2.28;;;1.90;;
63499;SDS011;49654;51.142;14.924;2022-09-12T12:24:32;3.92;;;2.53;;
63499;SDS011;49654;51.142;14.924;2022-09-12T12:27:00;3.40;;;2.75;;
63499;SDS011;49654;51.142;14.924;2022-09-12T12:29:36;3.70;;;3.25;;
63499;SDS011;49654;51.142;14.924;2022-09-12T12:32:23;3.65;;;3.13;;
63499;SDS011;49654;51.142;14.924;2022-09-12T12:35:00;4.50;;;3.22;;
63499;SDS011;49654;51.142;14.924;2022-09-12T12:37:51;4.18;;;3.33;;
63499;SDS011;49654;51.142;14.924;2022-09-12T12:40:21;4.95;;;3.10;;
63499;SDS011;49654;51.142;14.924;2022-09-12T12:46:01;4.00;;;3.17;;
63499;SDS011;49654;51.142;14.924;2022-09-12T12:48:34;3.10;;;2.80;;
63499;SDS011;49654;51.142;14.924;2022-09-12T12:54:25;4.45;;;3.10;;
63499;SDS011;49654;51.142;14.924;2022-09-12T12:57:04;3.33;;;2.88;;
63499;SDS011;49654;51.142;14.924;2022-09-12T12:59:45;2.90;;;2.70;;
63499;SDS011;49654;51.142;14.924;2022-09-12T13:02:17;3.28;;;2.70;;
63499;SDS011;49654;51.142;14.924;2022-09-12T13:04:47;5.22;;;2.35;;
63499;SDS011;49654;51.142;14.924;2022-09-12T13:07:20;5.38;;;2.90;;
63499;SDS011;49654;51.142;14.924;2022-09-12T13:09:53;2.65;;;2.45;;
63499;SDS011;49654;51.142;14.924;2022-09-12T13:12:23;4.00;;;2.33;;
63499;SDS011;49654;51.142;14.924;2022-09-12T13:14:53;2.83;;;2.20;;
63499;SDS011;49654;51.142;14.924;2022-09-12T13:17:22;3.22;;;2.50;;
63499;SDS011;49654;51.142;14.924;2022-09-12T13:19:53;2.45;;;1.90;;
63499;SDS011;49654;51.142;14.924;2022-09-12T13:22:37;2.30;;;2.10;;
63499;SDS011;49654;51.142;14.924;2022-09-12T13:28:03;2.50;;;1.92;;
63499;SDS011;49654;51.142;14.924;2022-09-12T13:30:34;2.17;;;1.90;;
63499;SDS011;49654;51.142;14.924;2022-09-12T13:33:08;2.38;;;1.90;;
63499;SDS011;49654;51.142;14.924;2022-09-12T13:35:49;1.80;;;1.70;;
63499;SDS011;49654;51.142;14.924;2022-09-12T13:38:36;2.10;;;1.90;;
63499;SDS011;49654;51.142;14.924;2022-09-12T13:41:17;4.65;;;2.10;;
63499;SDS011;49654;51.142;14.924;2022-09-12T13:43:57;2.15;;;1.95;;
63499;SDS011;49654;51.142;14.924;2022-09-12T13:46:27;4.22;;;2.20;;
63499;SDS011;49654;51.142;14.924;2022-09-12T13:48:57;2.95;;;2.20;;
63499;SDS011;49654;51.142;14.924;2022-09-12T13:51:26;2.58;;;2.20;;
63499;SDS011;49654;51.142;14.924;2022-09-12T13:53:56;3.33;;;2.03;;
63499;SDS011;49654;51.142;14.924;2022-09-12T13:56:26;2.42;;;2.10;;
63499;SDS011;49654;51.142;14.924;2022-09-12T13:58:54;2.67;;;1.90;;
63499;SDS011;49654;51.142;14.924;2022-09-12T14:01:24;1.67;;;1.42;;
63499;SDS011;49654;51.142;14.924;2022-09-12T14:04:07;2.78;;;1.60;;
63499;SDS011;49654;51.142;14.924;2022-09-12T14:06:58;3.53;;;1.60;;
63499;SDS011;49654;51.142;14.924;2022-09-12T14:09:29;2.25;;;1.55;;
63499;SDS011;49654;51.142;14.924;2022-09-12T14:12:02;2.20;;;1.20;;
63499;SDS011;49654;51.142;14.924;2022-09-12T14:14:42;1.80;;;1.52;;
63499;SDS011;49654;51.142;14.924;2022-09-12T14:17:14;1.70;;;1.38;;
63499;SDS011;49654;51.142;14.924;2022-09-12T14:19:43;1.63;;;1.52;;
63499;SDS011;49654;51.142;14.924;2022-09-12T14:22:11;1.70;;;1.60;;
63499;SDS011;49654;51.142;14.924;2022-09-12T14:24:43;5.63;;;1.50;;
63499;SDS011;49654;51.142;14.924;2022-09-12T14:27:18;3.15;;;1.40;;
63499;SDS011;49654;51.142;14.924;2022-09-12T14:29:47;2.80;;;1.60;;
63499;SDS011;49654;51.142;14.924;2022-09-12T14:32:20;2.65;;;1.67;;
63499;SDS011;49654;51.142;14.924;2022-09-12T14:37:45;1.75;;;1.65;;
63499;SDS011;49654;51.142;14.924;2022-09-12T14:40:15;3.70;;;1.67;;
63499;SDS011;49654;51.142;14.924;2022-09-12T14:42:45;1.63;;;1.52;;
63499;SDS011;49654;51.142;14.924;2022-09-12T14:45:16;2.38;;;1.70;;
63499;SDS011;49654;51.142;14.924;2022-09-12T14:47:49;4.45;;;4.03;;
63499;SDS011;49654;51.142;14.924;2022-09-12T14:50:18;2.17;;;1.52;;
63499;SDS011;49654;51.142;14.924;2022-09-12T14:53:00;3.30;;;2.00;;
63499;SDS011;49654;51.142;14.924;2022-09-12T14:55:29;2.63;;;1.30;;
63499;SDS011;49654;51.142;14.924;2022-09-12T14:58:13;3.25;;;1.45;;
63499;SDS011;49654;51.142;14.924;2022-09-12T15:00:51;1.40;;;1.30;;
63499;SDS011;49654;51.142;14.924;2022-09-12T15:03:23;1.30;;;1.20;;